PWSweather.com
Personal Weather Stations
Station Observations
KCOBLACK1
Chalet Park, Black Hawk, CO 80422

Chalet ParkBlack Hawk, CO 80422

Lat: 39.8294, Lon: -105.48

Elevation: 9370

Station Type: Vantage Pro2

http://www.oscaranddeb.com/weather

High Low Average
Temperature 27.6°F-2.4°F 17.6°F-8.0°F 22.2°F-5.4°F
Dew Point 14.2°F-9.9°F 5.2°F-14.9°F 8.8°F-12.9°F
Winds 23.0 mph SW37.0 mph SW Calm Calm 7.5 mph 12.1 mph
Wind Gusts 31.0 mph49.9 mph 2.0 mph3.2 mph 15.9 mph25.6 mph
Humidity 66% 44% 56%
Pressure 30.21 in1023.00 in 30.11 in1019.60 in -
Precipitation 0.00 in0.00 in - -
Hour Temp Dew Point Humidity Winds Wind Gusts Pressure Precip Precip Rate Daily Precip Total
12:00 AM 19.6°F-6.9°C 9.4°F-12.6°C 64% 1.0 mph WSW1.6 kmh WSW 5.0 mph8.0 kmh 30.15 in1021.0 mb 0.00 in0.0 mm 0.00 in/hr0.0 mm/hr 0.04 in1.0 mm
12:05 AM 19.3°F-7.1°C 9.4°F-12.6°C 65% 2.0 mph WSW3.2 kmh WSW 4.0 mph6.4 kmh 30.14 in1020.7 mb 0.00 in0.0 mm 0.00 in/hr0.0 mm/hr 0.00 in0.0 mm
12:10 AM 19.2°F-7.1°C 9.3°F-12.6°C 65% 1.0 mph W1.6 kmh W 6.0 mph9.7 kmh 30.14 in1020.7 mb 0.00 in0.0 mm 0.00 in/hr0.0 mm/hr 0.00 in0.0 mm
12:15 AM 19.3°F-7.1°C 9.1°F-12.7°C 64% 3.0 mph WSW4.8 kmh WSW 4.0 mph6.4 kmh 30.14 in1020.7 mb 0.00 in0.0 mm 0.00 in/hr0.0 mm/hr 0.00 in0.0 mm
12:20 AM 19.1°F-7.2°C 8.9°F-12.8°C 64% 1.0 mph WSW1.6 kmh WSW 4.0 mph6.4 kmh 30.14 in1020.7 mb 0.00 in0.0 mm 0.00 in/hr0.0 mm/hr 0.00 in0.0 mm
12:25 AM 19.0°F-7.2°C 8.8°F-12.9°C 64% 3.0 mph W4.8 kmh W 9.0 mph14.5 kmh 30.14 in1020.7 mb 0.00 in0.0 mm 0.00 in/hr0.0 mm/hr 0.00 in0.0 mm
12:30 AM 19.3°F-7.1°C 9.1°F-12.7°C 64% 1.0 mph W1.6 kmh W 9.0 mph14.5 kmh 30.13 in1020.3 mb 0.00 in0.0 mm 0.00 in/hr0.0 mm/hr 0.00 in0.0 mm
12:35 AM 19.2°F-7.1°C 9.0°F-12.8°C 64% 3.0 mph W4.8 kmh W 4.0 mph6.4 kmh 30.13 in1020.3 mb 0.00 in0.0 mm 0.00 in/hr0.0 mm/hr 0.00 in0.0 mm
12:40 AM 19.1°F-7.2°C 8.9°F-12.8°C 64% 2.0 mph W3.2 kmh W 4.0 mph6.4 kmh 30.13 in1020.3 mb 0.00 in0.0 mm 0.00 in/hr0.0 mm/hr 0.00 in0.0 mm
12:45 AM 19.1°F-7.2°C 8.9°F-12.8°C 64% 2.0 mph W3.2 kmh W 4.0 mph6.4 kmh 30.13 in1020.3 mb 0.00 in0.0 mm 0.00 in/hr0.0 mm/hr 0.00 in0.0 mm
12:50 AM 18.9°F-7.3°C 8.7°F-12.9°C 64% 3.0 mph W4.8 kmh W 6.0 mph9.7 kmh 30.13 in1020.3 mb 0.00 in0.0 mm 0.00 in/hr0.0 mm/hr 0.00 in0.0 mm
12:55 AM 18.9°F-7.3°C 8.7°F-12.9°C 64% 3.0 mph WSW4.8 kmh WSW 7.0 mph11.3 kmh 30.13 in1020.3 mb 0.00 in0.0 mm 0.00 in/hr0.0 mm/hr 0.00 in0.0 mm
01:00 AM 18.7°F-7.4°C 8.5°F-13.1°C 64% 3.0 mph W4.8 kmh W 3.0 mph4.8 kmh 30.13 in1020.3 mb 0.00 in0.0 mm 0.00 in/hr0.0 mm/hr 0.00 in0.0 mm
01:05 AM 18.5°F-7.5°C 8.7°F-12.9°C 65% 2.0 mph W3.2 kmh W 3.0 mph4.8 kmh 30.13 in1020.3 mb 0.00 in0.0 mm 0.00 in/hr0.0 mm/hr 0.00 in0.0 mm
01:10 AM 18.4°F-7.6°C 8.6°F-13.0°C 65% 2.0 mph W3.2 kmh W 2.0 mph3.2 kmh 30.13 in1020.3 mb 0.00 in0.0 mm 0.00 in/hr0.0 mm/hr 0.00 in0.0 mm
01:15 AM 18.3°F-7.6°C 8.5°F-13.1°C 65% 2.0 mph W3.2 kmh W 4.0 mph6.4 kmh 30.13 in1020.3 mb 0.00 in0.0 mm 0.00 in/hr0.0 mm/hr 0.00 in0.0 mm
01:20 AM 18.2°F-7.7°C 8.0°F-13.3°C 64% 1.0 mph W1.6 kmh W 4.0 mph6.4 kmh 30.13 in1020.3 mb 0.00 in0.0 mm 0.00 in/hr0.0 mm/hr 0.00 in0.0 mm
01:25 AM 18.1°F-7.7°C 8.3°F-13.2°C 65% 1.0 mph W1.6 kmh W 3.0 mph4.8 kmh 30.13 in1020.3 mb 0.00 in0.0 mm 0.00 in/hr0.0 mm/hr 0.00 in0.0 mm
01:30 AM 18.1°F-7.7°C 8.0°F-13.3°C 64% 1.0 mph W1.6 kmh W 2.0 mph3.2 kmh 30.12 in1020.0 mb 0.00 in0.0 mm 0.00 in/hr0.0 mm/hr 0.00 in0.0 mm
01:35 AM 18.1°F-7.7°C 8.0°F-13.3°C 64% 2.0 mph W3.2 kmh W 3.0 mph4.8 kmh 30.13 in1020.3 mb 0.00 in0.0 mm 0.00 in/hr0.0 mm/hr 0.00 in0.0 mm
01:40 AM 18.1°F-7.7°C 8.3°F-13.2°C 65% 2.0 mph W3.2 kmh W 3.0 mph4.8 kmh 30.13 in1020.3 mb 0.00 in0.0 mm 0.00 in/hr0.0 mm/hr 0.00 in0.0 mm
01:45 AM 18.1°F-7.7°C 8.0°F-13.3°C 64% 2.0 mph W3.2 kmh W 3.0 mph4.8 kmh 30.13 in1020.3 mb 0.00 in0.0 mm 0.00 in/hr0.0 mm/hr 0.00 in0.0 mm
01:50 AM 18.2°F-7.7°C 8.0°F-13.3°C 64% 3.0 mph NW4.8 kmh NW 7.0 mph11.3 kmh 30.13 in1020.3 mb 0.00 in0.0 mm 0.00 in/hr0.0 mm/hr 0.00 in0.0 mm
01:55 AM 18.6°F-7.4°C 8.1°F-13.3°C 63% 2.0 mph W3.2 kmh W 6.0 mph9.7 kmh 30.12 in1020.0 mb 0.00 in0.0 mm 0.00 in/hr0.0 mm/hr 0.00 in0.0 mm
02:00 AM 18.5°F-7.5°C 8.0°F-13.3°C 63% 3.0 mph W4.8 kmh W 4.0 mph6.4 kmh 30.12 in1020.0 mb 0.00 in0.0 mm 0.00 in/hr0.0 mm/hr 0.00 in0.0 mm
02:05 AM 18.4°F-7.6°C 7.9°F-13.4°C 63% 7.0 mph WSW11.3 kmh WSW 6.0 mph9.7 kmh 30.12 in1020.0 mb 0.00 in0.0 mm 0.00 in/hr0.0 mm/hr 0.00 in0.0 mm
02:10 AM 18.4°F-7.6°C 7.9°F-13.4°C 63% 4.0 mph WSW6.4 kmh WSW 7.0 mph11.3 kmh 30.12 in1020.0 mb 0.00 in0.0 mm 0.00 in/hr0.0 mm/hr 0.00 in0.0 mm
02:15 AM 18.5°F-7.5°C 8.0°F-13.3°C 63% 2.0 mph WSW3.2 kmh WSW 3.0 mph4.8 kmh 30.13 in1020.3 mb 0.00 in0.0 mm 0.00 in/hr0.0 mm/hr 0.00 in0.0 mm
02:20 AM 18.4°F-7.6°C 7.9°F-13.4°C 63% 1.0 mph WSW1.6 kmh WSW 3.0 mph4.8 kmh 30.13 in1020.3 mb 0.00 in0.0 mm 0.00 in/hr0.0 mm/hr 0.00 in0.0 mm
02:25 AM 18.4°F-7.6°C 7.9°F-13.4°C 63% 1.0 mph WSW1.6 kmh WSW 2.0 mph3.2 kmh 30.13 in1020.3 mb 0.00 in0.0 mm 0.00 in/hr0.0 mm/hr 0.00 in0.0 mm
02:30 AM 18.5°F-7.5°C 8.0°F-13.3°C 63% 1.0 mph WSW1.6 kmh WSW 4.0 mph6.4 kmh 30.12 in1020.0 mb 0.00 in0.0 mm 0.00 in/hr0.0 mm/hr 0.00 in0.0 mm
02:35 AM 18.5°F-7.5°C 8.0°F-13.3°C 63% 4.0 mph SW6.4 kmh SW 4.0 mph6.4 kmh 30.13 in1020.3 mb 0.00 in0.0 mm 0.00 in/hr0.0 mm/hr 0.00 in0.0 mm
02:40 AM 18.5°F-7.5°C 7.6°F-13.6°C 62% 4.0 mph SW6.4 kmh SW 6.0 mph9.7 kmh 30.12 in1020.0 mb 0.00 in0.0 mm 0.00 in/hr0.0 mm/hr 0.00 in0.0 mm
02:45 AM 18.8°F-7.3°C 7.9°F-13.4°C 62% 2.0 mph WSW3.2 kmh WSW 7.0 mph11.3 kmh 30.12 in1020.0 mb 0.00 in0.0 mm 0.00 in/hr0.0 mm/hr 0.00 in0.0 mm
02:50 AM 18.9°F-7.3°C 7.7°F-13.5°C 61% 3.0 mph WSW4.8 kmh WSW 8.0 mph12.9 kmh 30.12 in1020.0 mb 0.00 in0.0 mm 0.00 in/hr0.0 mm/hr 0.00 in0.0 mm
02:55 AM 18.9°F-7.3°C 7.7°F-13.5°C 61% 3.0 mph WSW4.8 kmh WSW 8.0 mph12.9 kmh 30.12 in1020.0 mb 0.00 in0.0 mm 0.00 in/hr0.0 mm/hr 0.00 in0.0 mm
03:00 AM 18.7°F-7.4°C 7.8°F-13.4°C 62% 3.0 mph WSW4.8 kmh WSW 4.0 mph6.4 kmh 30.12 in1020.0 mb 0.00 in0.0 mm 0.00 in/hr0.0 mm/hr 0.00 in0.0 mm
03:05 AM 18.5°F-7.5°C 7.6°F-13.6°C 62% 4.0 mph W6.4 kmh W 5.0 mph8.0 kmh 30.12 in1020.0 mb 0.00 in0.0 mm 0.00 in/hr0.0 mm/hr 0.00 in0.0 mm
03:10 AM 18.4°F-7.6°C 7.5°F-13.6°C 62% 2.0 mph W3.2 kmh W 6.0 mph9.7 kmh 30.12 in1020.0 mb 0.00 in0.0 mm 0.00 in/hr0.0 mm/hr 0.00 in0.0 mm
03:15 AM 18.2°F-7.7°C 7.7°F-13.5°C 63% 1.0 mph W1.6 kmh W 4.0 mph6.4 kmh 30.12 in1020.0 mb 0.00 in0.0 mm 0.00 in/hr0.0 mm/hr 0.00 in0.0 mm
03:20 AM 17.9°F-7.8°C 7.8°F-13.4°C 64% 3.0 mph WSW4.8 kmh WSW 6.0 mph9.7 kmh 30.11 in1019.6 mb 0.00 in0.0 mm 0.00 in/hr0.0 mm/hr 0.00 in0.0 mm
03:25 AM 17.9°F-7.8°C 7.8°F-13.4°C 64% 3.0 mph WSW4.8 kmh WSW 7.0 mph11.3 kmh 30.11 in1019.6 mb 0.00 in0.0 mm 0.00 in/hr0.0 mm/hr 0.00 in0.0 mm
03:30 AM 18.1°F-7.7°C 8.0°F-13.3°C 64% 2.0 mph WSW3.2 kmh WSW 8.0 mph12.9 kmh 30.11 in1019.6 mb 0.00 in0.0 mm 0.00 in/hr0.0 mm/hr 0.00 in0.0 mm
03:35 AM 18.0°F-7.8°C 7.9°F-13.4°C 64% 1.0 mph WSW1.6 kmh WSW 5.0 mph8.0 kmh 30.12 in1020.0 mb 0.00 in0.0 mm 0.00 in/hr0.0 mm/hr 0.00 in0.0 mm
03:40 AM 18.2°F-7.7°C 8.0°F-13.3°C 64% 3.0 mph SW4.8 kmh SW 9.0 mph14.5 kmh 30.11 in1019.6 mb 0.00 in0.0 mm 0.00 in/hr0.0 mm/hr 0.00 in0.0 mm
03:45 AM 18.3°F-7.6°C 7.8°F-13.4°C 63% Calm Calm 9.0 mph14.5 kmh 30.11 in1019.6 mb 0.00 in0.0 mm 0.00 in/hr0.0 mm/hr 0.00 in0.0 mm
03:50 AM 18.1°F-7.7°C 8.0°F-13.3°C 64% 1.0 mph SSW1.6 kmh SSW 8.0 mph12.9 kmh 30.12 in1020.0 mb 0.00 in0.0 mm 0.00 in/hr0.0 mm/hr 0.00 in0.0 mm
03:55 AM 18.3°F-7.6°C 8.1°F-13.3°C 64% 3.0 mph WNW4.8 kmh WNW 13.0 mph20.9 kmh 30.12 in1020.0 mb 0.00 in0.0 mm 0.00 in/hr0.0 mm/hr 0.00 in0.0 mm
04:00 AM 18.4°F-7.6°C 7.9°F-13.4°C 63% 1.0 mph NW1.6 kmh NW 13.0 mph20.9 kmh 30.11 in1019.6 mb 0.00 in0.0 mm 0.00 in/hr0.0 mm/hr 0.00 in0.0 mm
04:05 AM 18.2°F-7.7°C 7.7°F-13.5°C 63% 2.0 mph NW3.2 kmh NW 8.0 mph12.9 kmh 30.12 in1020.0 mb 0.00 in0.0 mm 0.00 in/hr0.0 mm/hr 0.00 in0.0 mm
04:10 AM 18.1°F-7.7°C 7.6°F-13.6°C 63% 2.0 mph WSW3.2 kmh WSW 7.0 mph11.3 kmh 30.12 in1020.0 mb 0.00 in0.0 mm 0.00 in/hr0.0 mm/hr 0.00 in0.0 mm
04:15 AM 18.2°F-7.7°C 7.3°F-13.7°C 62% 3.0 mph NW4.8 kmh NW 10.0 mph16.1 kmh 30.12 in1020.0 mb 0.00 in0.0 mm 0.00 in/hr0.0 mm/hr 0.00 in0.0 mm
04:20 AM 18.8°F-7.3°C 7.2°F-13.8°C 60% 10.0 mph NW16.1 kmh NW 12.0 mph19.3 kmh 30.12 in1020.0 mb 0.00 in0.0 mm 0.00 in/hr0.0 mm/hr 0.00 in0.0 mm
04:25 AM 18.9°F-7.3°C 7.7°F-13.5°C 61% 10.0 mph WNW16.1 kmh WNW 10.0 mph16.1 kmh 30.12 in1020.0 mb 0.00 in0.0 mm 0.00 in/hr0.0 mm/hr 0.00 in0.0 mm
04:30 AM 18.9°F-7.3°C 7.3°F-13.7°C 60% 8.0 mph NW12.9 kmh NW 11.0 mph17.7 kmh 30.12 in1020.0 mb 0.00 in0.0 mm 0.00 in/hr0.0 mm/hr 0.00 in0.0 mm
04:35 AM 19.0°F-7.2°C 7.0°F-13.9°C 59% 5.0 mph NW8.0 kmh NW 10.0 mph16.1 kmh 30.12 in1020.0 mb 0.00 in0.0 mm 0.00 in/hr0.0 mm/hr 0.00 in0.0 mm
04:40 AM 18.8°F-7.3°C 7.2°F-13.8°C 60% 2.0 mph WNW3.2 kmh WNW 10.0 mph16.1 kmh 30.12 in1020.0 mb 0.00 in0.0 mm 0.00 in/hr0.0 mm/hr 0.00 in0.0 mm
04:45 AM 18.6°F-7.4°C 7.0°F-13.9°C 60% 3.0 mph WNW4.8 kmh WNW 11.0 mph17.7 kmh 30.12 in1020.0 mb 0.00 in0.0 mm 0.00 in/hr0.0 mm/hr 0.00 in0.0 mm
04:50 AM 18.6°F-7.4°C 7.4°F-13.7°C 61% 2.0 mph NW3.2 kmh NW 9.0 mph14.5 kmh 30.12 in1020.0 mb 0.00 in0.0 mm 0.00 in/hr0.0 mm/hr 0.00 in0.0 mm
04:55 AM 18.6°F-7.4°C 7.0°F-13.9°C 60% 3.0 mph W4.8 kmh W 10.0 mph16.1 kmh 30.12 in1020.0 mb 0.00 in0.0 mm 0.00 in/hr0.0 mm/hr 0.00 in0.0 mm
05:00 AM 18.5°F-7.5°C 7.3°F-13.7°C 61% 4.0 mph WNW6.4 kmh WNW 11.0 mph17.7 kmh 30.12 in1020.0 mb 0.00 in0.0 mm 0.00 in/hr0.0 mm/hr 0.00 in0.0 mm
05:05 AM 18.6°F-7.4°C 8.1°F-13.3°C 63% 20.0 mph WNW32.2 kmh WNW 21.0 mph33.8 kmh 30.12 in1020.0 mb 0.00 in0.0 mm 0.00 in/hr0.0 mm/hr 0.00 in0.0 mm
05:10 AM 18.6°F-7.4°C 8.4°F-13.1°C 64% 12.0 mph NW19.3 kmh NW 21.0 mph33.8 kmh 30.13 in1020.3 mb 0.00 in0.0 mm 0.00 in/hr0.0 mm/hr 0.00 in0.0 mm
05:15 AM 18.2°F-7.7°C 8.7°F-12.9°C 66% 7.0 mph W11.3 kmh W 18.0 mph29.0 kmh 30.13 in1020.3 mb 0.00 in0.0 mm 0.00 in/hr0.0 mm/hr 0.00 in0.0 mm
05:20 AM 18.3°F-7.6°C 8.8°F-12.9°C 66% 12.0 mph NW19.3 kmh NW 24.0 mph38.6 kmh 30.13 in1020.3 mb 0.00 in0.0 mm 0.00 in/hr0.0 mm/hr 0.00 in0.0 mm
05:25 AM 18.2°F-7.7°C 8.7°F-12.9°C 66% 5.0 mph NW8.0 kmh NW 20.0 mph32.2 kmh 30.14 in1020.7 mb 0.00 in0.0 mm 0.00 in/hr0.0 mm/hr 0.00 in0.0 mm
05:30 AM 18.2°F-7.7°C 8.0°F-13.3°C 64% 20.0 mph WNW32.2 kmh WNW 20.0 mph32.2 kmh 30.14 in1020.7 mb 0.00 in0.0 mm 0.00 in/hr0.0 mm/hr 0.00 in0.0 mm
05:35 AM 18.6°F-7.4°C 7.4°F-13.7°C 61% 8.0 mph W12.9 kmh W 28.0 mph45.1 kmh 30.14 in1020.7 mb 0.00 in0.0 mm 0.00 in/hr0.0 mm/hr 0.00 in0.0 mm
05:40 AM 18.8°F-7.3°C 6.8°F-14.0°C 59% 8.0 mph WNW12.9 kmh WNW 21.0 mph33.8 kmh 30.15 in1021.0 mb 0.00 in0.0 mm 0.00 in/hr0.0 mm/hr 0.00 in0.0 mm
05:45 AM 18.5°F-7.5°C 7.3°F-13.7°C 61% 5.0 mph WNW8.0 kmh WNW 13.0 mph20.9 kmh 30.14 in1020.7 mb 0.00 in0.0 mm 0.00 in/hr0.0 mm/hr 0.00 in0.0 mm
05:50 AM 18.3°F-7.6°C 7.1°F-13.8°C 61% 4.0 mph W6.4 kmh W 23.0 mph37.0 kmh 30.15 in1021.0 mb 0.00 in0.0 mm 0.00 in/hr0.0 mm/hr 0.00 in0.0 mm
05:55 AM 18.4°F-7.6°C 7.2°F-13.8°C 61% 14.0 mph W22.5 kmh W 24.0 mph38.6 kmh 30.14 in1020.7 mb 0.00 in0.0 mm 0.00 in/hr0.0 mm/hr 0.00 in0.0 mm
06:00 AM 18.5°F-7.5°C 6.9°F-13.9°C 60% 11.0 mph W17.7 kmh W 28.0 mph45.1 kmh 30.14 in1020.7 mb 0.00 in0.0 mm 0.00 in/hr0.0 mm/hr 0.00 in0.0 mm
06:05 AM 18.6°F-7.4°C 6.6°F-14.1°C 59% 14.0 mph WNW22.5 kmh WNW 24.0 mph38.6 kmh 30.14 in1020.7 mb 0.00 in0.0 mm 0.00 in/hr0.0 mm/hr 0.00 in0.0 mm
06:10 AM 18.6°F-7.4°C 6.3°F-14.3°C 58% 3.0 mph NW4.8 kmh NW 19.0 mph30.6 kmh 30.15 in1021.0 mb 0.00 in0.0 mm 0.00 in/hr0.0 mm/hr 0.00 in0.0 mm
06:15 AM 18.6°F-7.4°C 6.3°F-14.3°C 58% 20.0 mph WSW32.2 kmh WSW 22.0 mph35.4 kmh 30.15 in1021.0 mb 0.00 in0.0 mm 0.00 in/hr0.0 mm/hr 0.00 in0.0 mm
06:20 AM 18.7°F-7.4°C 6.4°F-14.2°C 58% 6.0 mph W9.7 kmh W 25.0 mph40.2 kmh 30.16 in1021.3 mb 0.00 in0.0 mm 0.00 in/hr0.0 mm/hr 0.00 in0.0 mm
06:25 AM 18.6°F-7.4°C 6.6°F-14.1°C 59% 11.0 mph W17.7 kmh W 20.0 mph32.2 kmh 30.15 in1021.0 mb 0.00 in0.0 mm 0.00 in/hr0.0 mm/hr 0.00 in0.0 mm
06:30 AM 18.4°F-7.6°C 6.4°F-14.2°C 59% 11.0 mph WNW17.7 kmh WNW 17.0 mph27.4 kmh 30.16 in1021.3 mb 0.00 in0.0 mm 0.00 in/hr0.0 mm/hr 0.00 in0.0 mm
06:35 AM 18.4°F-7.6°C 6.4°F-14.2°C 59% 12.0 mph W19.3 kmh W 22.0 mph35.4 kmh 30.17 in1021.7 mb 0.00 in0.0 mm 0.00 in/hr0.0 mm/hr 0.00 in0.0 mm
06:40 AM 18.4°F-7.6°C 6.8°F-14.0°C 60% 7.0 mph W11.3 kmh W 20.0 mph32.2 kmh 30.17 in1021.7 mb 0.00 in0.0 mm 0.00 in/hr0.0 mm/hr 0.00 in0.0 mm
06:45 AM 18.4°F-7.6°C 6.8°F-14.0°C 60% 10.0 mph NW16.1 kmh NW 18.0 mph29.0 kmh 30.16 in1021.3 mb 0.00 in0.0 mm 0.00 in/hr0.0 mm/hr 0.00 in0.0 mm
06:50 AM 18.4°F-7.6°C 6.1°F-14.4°C 58% 9.0 mph NW14.5 kmh NW 20.0 mph32.2 kmh 30.16 in1021.3 mb 0.00 in0.0 mm 0.00 in/hr0.0 mm/hr 0.00 in0.0 mm
06:55 AM 18.4°F-7.6°C 6.4°F-14.2°C 59% 11.0 mph NW17.7 kmh NW 19.0 mph30.6 kmh 30.17 in1021.7 mb 0.00 in0.0 mm 0.00 in/hr0.0 mm/hr 0.00 in0.0 mm
07:00 AM 18.3°F-7.6°C 6.0°F-14.4°C 58% 4.0 mph NW6.4 kmh NW 21.0 mph33.8 kmh 30.16 in1021.3 mb 0.00 in0.0 mm 0.00 in/hr0.0 mm/hr 0.00 in0.0 mm
07:05 AM 18.1°F-7.7°C 6.5°F-14.2°C 60% 8.0 mph WSW12.9 kmh WSW 13.0 mph20.9 kmh 30.16 in1021.3 mb 0.00 in0.0 mm 0.00 in/hr0.0 mm/hr 0.00 in0.0 mm
07:10 AM 18.2°F-7.7°C 6.6°F-14.1°C 60% 12.0 mph NW19.3 kmh NW 18.0 mph29.0 kmh 30.16 in1021.3 mb 0.00 in0.0 mm 0.00 in/hr0.0 mm/hr 0.00 in0.0 mm
07:15 AM 18.0°F-7.8°C 6.4°F-14.2°C 60% 12.0 mph NNW19.3 kmh NNW 24.0 mph38.6 kmh 30.16 in1021.3 mb 0.00 in0.0 mm 0.00 in/hr0.0 mm/hr 0.00 in0.0 mm
07:20 AM 17.9°F-7.8°C 6.7°F-14.1°C 61% 8.0 mph WSW12.9 kmh WSW 16.0 mph25.7 kmh 30.16 in1021.3 mb 0.00 in0.0 mm 0.00 in/hr0.0 mm/hr 0.00 in0.0 mm
07:25 AM 17.9°F-7.8°C 6.0°F-14.4°C 59% 4.0 mph WSW6.4 kmh WSW 15.0 mph24.1 kmh 30.17 in1021.7 mb 0.00 in0.0 mm 0.00 in/hr0.0 mm/hr 0.00 in0.0 mm
07:30 AM 17.8°F-7.9°C 6.2°F-14.3°C 60% 9.0 mph NW14.5 kmh NW 10.0 mph16.1 kmh 30.17 in1021.7 mb 0.00 in0.0 mm 0.00 in/hr0.0 mm/hr 0.00 in0.0 mm
07:35 AM 17.8°F-7.9°C 6.2°F-14.3°C 60% 4.0 mph W6.4 kmh W 16.0 mph25.7 kmh 30.17 in1021.7 mb 0.00 in0.0 mm 0.00 in/hr0.0 mm/hr 0.00 in0.0 mm
07:40 AM 17.6°F-8.0°C 6.1°F-14.4°C 60% 4.0 mph W6.4 kmh W 10.0 mph16.1 kmh 30.17 in1021.7 mb 0.00 in0.0 mm 0.00 in/hr0.0 mm/hr 0.00 in0.0 mm
07:45 AM 17.7°F-7.9°C 5.8°F-14.6°C 59% 5.0 mph WNW8.0 kmh WNW 16.0 mph25.7 kmh 30.17 in1021.7 mb 0.00 in0.0 mm 0.00 in/hr0.0 mm/hr 0.00 in0.0 mm
07:50 AM 18.0°F-7.8°C 5.3°F-14.8°C 57% 10.0 mph NW16.1 kmh NW 20.0 mph32.2 kmh 30.18 in1022.0 mb 0.00 in0.0 mm 0.00 in/hr0.0 mm/hr 0.00 in0.0 mm
07:55 AM 18.3°F-7.6°C 5.2°F-14.9°C 56% 6.0 mph W9.7 kmh W 16.0 mph25.7 kmh 30.18 in1022.0 mb 0.00 in0.0 mm 0.00 in/hr0.0 mm/hr 0.00 in0.0 mm
08:00 AM 18.6°F-7.4°C 5.5°F-14.7°C 56% 2.0 mph WSW3.2 kmh WSW 17.0 mph27.4 kmh 30.18 in1022.0 mb 0.00 in0.0 mm 0.00 in/hr0.0 mm/hr 0.00 in0.0 mm
08:05 AM 18.5°F-7.5°C 5.4°F-14.8°C 56% 8.0 mph NW12.9 kmh NW 15.0 mph24.1 kmh 30.18 in1022.0 mb 0.00 in0.0 mm 0.00 in/hr0.0 mm/hr 0.00 in0.0 mm
08:10 AM 18.6°F-7.4°C 5.5°F-14.7°C 56% 14.0 mph NW22.5 kmh NW 16.0 mph25.7 kmh 30.18 in1022.0 mb 0.00 in0.0 mm 0.00 in/hr0.0 mm/hr 0.00 in0.0 mm
08:15 AM 18.7°F-7.4°C 6.0°F-14.4°C 57% 6.0 mph W9.7 kmh W 16.0 mph25.7 kmh 30.18 in1022.0 mb 0.00 in0.0 mm 0.00 in/hr0.0 mm/hr 0.00 in0.0 mm
08:20 AM 19.0°F-7.2°C 6.3°F-14.3°C 57% 11.0 mph WSW17.7 kmh WSW 18.0 mph29.0 kmh 30.18 in1022.0 mb 0.00 in0.0 mm 0.00 in/hr0.0 mm/hr 0.00 in0.0 mm
08:25 AM 19.0°F-7.2°C 6.3°F-14.3°C 57% 3.0 mph SW4.8 kmh SW 15.0 mph24.1 kmh 30.18 in1022.0 mb 0.00 in0.0 mm 0.00 in/hr0.0 mm/hr 0.00 in0.0 mm
08:30 AM 18.9°F-7.3°C 6.2°F-14.3°C 57% 13.0 mph WSW20.9 kmh WSW 17.0 mph27.4 kmh 30.18 in1022.0 mb 0.00 in0.0 mm 0.00 in/hr0.0 mm/hr 0.00 in0.0 mm
08:35 AM 18.9°F-7.3°C 6.5°F-14.2°C 58% 7.0 mph SW11.3 kmh SW 12.0 mph19.3 kmh 30.18 in1022.0 mb 0.00 in0.0 mm 0.00 in/hr0.0 mm/hr 0.00 in0.0 mm
08:40 AM 19.0°F-7.2°C 6.6°F-14.1°C 58% 7.0 mph WNW11.3 kmh WNW 12.0 mph19.3 kmh 30.19 in1022.4 mb 0.00 in0.0 mm 0.00 in/hr0.0 mm/hr 0.00 in0.0 mm
08:45 AM 19.2°F-7.1°C 6.4°F-14.2°C 57% 8.0 mph WSW12.9 kmh WSW 14.0 mph22.5 kmh 30.18 in1022.0 mb 0.00 in0.0 mm 0.00 in/hr0.0 mm/hr 0.00 in0.0 mm
08:50 AM 19.4°F-7.0°C 6.6°F-14.1°C 57% 3.0 mph W4.8 kmh W 10.0 mph16.1 kmh 30.18 in1022.0 mb 0.00 in0.0 mm 0.00 in/hr0.0 mm/hr 0.00 in0.0 mm
08:55 AM 19.6°F-6.9°C 6.4°F-14.2°C 56% 2.0 mph NW3.2 kmh NW 17.0 mph27.4 kmh 30.18 in1022.0 mb 0.00 in0.0 mm 0.00 in/hr0.0 mm/hr 0.00 in0.0 mm
09:00 AM 19.9°F-6.7°C 6.7°F-14.1°C 56% 14.0 mph WSW22.5 kmh WSW 18.0 mph29.0 kmh 30.18 in1022.0 mb 0.00 in0.0 mm 0.00 in/hr0.0 mm/hr 0.00 in0.0 mm
09:05 AM 20.1°F-6.6°C 6.5°F-14.2°C 55% 10.0 mph W16.1 kmh W 14.0 mph22.5 kmh 30.18 in1022.0 mb 0.00 in0.0 mm 0.00 in/hr0.0 mm/hr 0.00 in0.0 mm
09:10 AM 20.5°F-6.4°C 7.3°F-13.7°C 56% 5.0 mph SW8.0 kmh SW 14.0 mph22.5 kmh 30.19 in1022.4 mb 0.00 in0.0 mm 0.00 in/hr0.0 mm/hr 0.00 in0.0 mm
09:15 AM 20.7°F-6.3°C 7.1°F-13.8°C 55% 7.0 mph WSW11.3 kmh WSW 12.0 mph19.3 kmh 30.19 in1022.4 mb 0.00 in0.0 mm 0.00 in/hr0.0 mm/hr 0.00 in0.0 mm
09:20 AM 20.8°F-6.2°C 7.2°F-13.8°C 55% 4.0 mph SW6.4 kmh SW 15.0 mph24.1 kmh 30.19 in1022.4 mb 0.00 in0.0 mm 0.00 in/hr0.0 mm/hr 0.00 in0.0 mm
09:25 AM 20.8°F-6.2°C 7.2°F-13.8°C 55% 9.0 mph NW14.5 kmh NW 16.0 mph25.7 kmh 30.19 in1022.4 mb 0.00 in0.0 mm 0.00 in/hr0.0 mm/hr 0.00 in0.0 mm
09:30 AM 20.9°F-6.2°C 7.3°F-13.7°C 55% 12.0 mph W19.3 kmh W 16.0 mph25.7 kmh 30.20 in1022.7 mb 0.00 in0.0 mm 0.00 in/hr0.0 mm/hr 0.00 in0.0 mm
09:35 AM 21.1°F-6.1°C 7.4°F-13.7°C 55% 1.0 mph W1.6 kmh W 13.0 mph20.9 kmh 30.20 in1022.7 mb 0.00 in0.0 mm 0.00 in/hr0.0 mm/hr 0.00 in0.0 mm
09:40 AM 21.3°F-5.9°C 7.2°F-13.8°C 54% 13.0 mph WSW20.9 kmh WSW 20.0 mph32.2 kmh 30.20 in1022.7 mb 0.00 in0.0 mm 0.00 in/hr0.0 mm/hr 0.00 in0.0 mm
09:45 AM 21.4°F-5.9°C 7.3°F-13.7°C 54% 11.0 mph WNW17.7 kmh WNW 13.0 mph20.9 kmh 30.21 in1023.0 mb 0.00 in0.0 mm 0.00 in/hr0.0 mm/hr 0.00 in0.0 mm
09:50 AM 21.4°F-5.9°C 7.3°F-13.7°C 54% 18.0 mph NW29.0 kmh NW 18.0 mph29.0 kmh 30.21 in1023.0 mb 0.00 in0.0 mm 0.00 in/hr0.0 mm/hr 0.00 in0.0 mm
09:55 AM 21.4°F-5.9°C 7.7°F-13.5°C 55% 9.0 mph W14.5 kmh W 17.0 mph27.4 kmh 30.21 in1023.0 mb 0.00 in0.0 mm 0.00 in/hr0.0 mm/hr 0.00 in0.0 mm
10:00 AM 21.6°F-5.8°C 8.7°F-12.9°C 57% 13.0 mph SW20.9 kmh SW 23.0 mph37.0 kmh 30.20 in1022.7 mb 0.00 in0.0 mm 0.00 in/hr0.0 mm/hr 0.00 in0.0 mm
10:05 AM 21.3°F-5.9°C 8.4°F-13.1°C 57% 8.0 mph WNW12.9 kmh WNW 20.0 mph32.2 kmh 30.20 in1022.7 mb 0.00 in0.0 mm 0.00 in/hr0.0 mm/hr 0.00 in0.0 mm
10:10 AM 21.3°F-5.9°C 8.4°F-13.1°C 57% 20.0 mph SW32.2 kmh SW 22.0 mph35.4 kmh 30.20 in1022.7 mb 0.00 in0.0 mm 0.00 in/hr0.0 mm/hr 0.00 in0.0 mm
10:15 AM 21.3°F-5.9°C 8.4°F-13.1°C 57% 4.0 mph WSW6.4 kmh WSW 24.0 mph38.6 kmh 30.20 in1022.7 mb 0.00 in0.0 mm 0.00 in/hr0.0 mm/hr 0.00 in0.0 mm
10:20 AM 21.3°F-5.9°C 8.4°F-13.1°C 57% 13.0 mph SW20.9 kmh SW 21.0 mph33.8 kmh 30.20 in1022.7 mb 0.00 in0.0 mm 0.00 in/hr0.0 mm/hr 0.00 in0.0 mm
10:25 AM 21.4°F-5.9°C 8.5°F-13.1°C 57% 10.0 mph WNW16.1 kmh WNW 24.0 mph38.6 kmh 30.20 in1022.7 mb 0.00 in0.0 mm 0.00 in/hr0.0 mm/hr 0.00 in0.0 mm
10:30 AM 21.5°F-5.8°C 8.6°F-13.0°C 57% 14.0 mph WSW22.5 kmh WSW 26.0 mph41.8 kmh 30.20 in1022.7 mb 0.00 in0.0 mm 0.00 in/hr0.0 mm/hr 0.00 in0.0 mm
10:35 AM 21.7°F-5.7°C 8.4°F-13.1°C 56% 10.0 mph SW16.1 kmh SW 20.0 mph32.2 kmh 30.20 in1022.7 mb 0.00 in0.0 mm 0.00 in/hr0.0 mm/hr 0.00 in0.0 mm
10:40 AM 21.7°F-5.7°C 8.0°F-13.3°C 55% 15.0 mph SW24.1 kmh SW 26.0 mph41.8 kmh 30.19 in1022.4 mb 0.00 in0.0 mm 0.00 in/hr0.0 mm/hr 0.00 in0.0 mm
10:45 AM 22.0°F-5.6°C 8.3°F-13.2°C 55% 3.0 mph WSW4.8 kmh WSW 15.0 mph24.1 kmh 30.19 in1022.4 mb 0.00 in0.0 mm 0.00 in/hr0.0 mm/hr 0.00 in0.0 mm
10:50 AM 22.3°F-5.4°C 8.2°F-13.2°C 54% 9.0 mph WSW14.5 kmh WSW 24.0 mph38.6 kmh 30.18 in1022.0 mb 0.00 in0.0 mm 0.00 in/hr0.0 mm/hr 0.00 in0.0 mm
10:55 AM 22.4°F-5.3°C 7.8°F-13.4°C 53% 12.0 mph WNW19.3 kmh WNW 20.0 mph32.2 kmh 30.18 in1022.0 mb 0.00 in0.0 mm 0.00 in/hr0.0 mm/hr 0.00 in0.0 mm
11:00 AM 22.6°F-5.2°C 8.4°F-13.1°C 54% 11.0 mph WSW17.7 kmh WSW 18.0 mph29.0 kmh 30.17 in1021.7 mb 0.00 in0.0 mm 0.00 in/hr0.0 mm/hr 0.00 in0.0 mm
11:05 AM 22.8°F-5.1°C 8.2°F-13.2°C 53% 13.0 mph SW20.9 kmh SW 18.0 mph29.0 kmh 30.17 in1021.7 mb 0.00 in0.0 mm 0.00 in/hr0.0 mm/hr 0.00 in0.0 mm
11:10 AM 22.6°F-5.2°C 8.0°F-13.3°C 53% 8.0 mph W12.9 kmh W 28.0 mph45.1 kmh 30.17 in1021.7 mb 0.00 in0.0 mm 0.00 in/hr0.0 mm/hr 0.00 in0.0 mm
11:15 AM 22.5°F-5.3°C 8.3°F-13.2°C 54% 16.0 mph W25.7 kmh W 23.0 mph37.0 kmh 30.17 in1021.7 mb 0.00 in0.0 mm 0.00 in/hr0.0 mm/hr 0.00 in0.0 mm
11:20 AM 22.7°F-5.2°C 8.1°F-13.3°C 53% 14.0 mph W22.5 kmh W 30.0 mph48.3 kmh 30.17 in1021.7 mb 0.00 in0.0 mm 0.00 in/hr0.0 mm/hr 0.00 in0.0 mm
11:25 AM 22.9°F-5.1°C 8.7°F-12.9°C 54% 22.0 mph WSW35.4 kmh WSW 30.0 mph48.3 kmh 30.17 in1021.7 mb 0.00 in0.0 mm 0.00 in/hr0.0 mm/hr 0.00 in0.0 mm
11:30 AM 23.0°F-5.0°C 8.4°F-13.1°C 53% 8.0 mph WSW12.9 kmh WSW 23.0 mph37.0 kmh 30.17 in1021.7 mb 0.00 in0.0 mm 0.00 in/hr0.0 mm/hr 0.00 in0.0 mm
11:35 AM 23.0°F-5.0°C 8.4°F-13.1°C 53% 12.0 mph NW19.3 kmh NW 20.0 mph32.2 kmh 30.17 in1021.7 mb 0.00 in0.0 mm 0.00 in/hr0.0 mm/hr 0.00 in0.0 mm
11:40 AM 23.0°F-5.0°C 8.4°F-13.1°C 53% 9.0 mph NW14.5 kmh NW 20.0 mph32.2 kmh 30.17 in1021.7 mb 0.00 in0.0 mm 0.00 in/hr0.0 mm/hr 0.00 in0.0 mm
11:45 AM 23.2°F-4.9°C 8.2°F-13.2°C 52% 18.0 mph NW29.0 kmh NW 24.0 mph38.6 kmh 30.16 in1021.3 mb 0.00 in0.0 mm 0.00 in/hr0.0 mm/hr 0.00 in0.0 mm
11:50 AM 23.0°F-5.0°C 8.8°F-12.9°C 54% 12.0 mph WNW19.3 kmh WNW 23.0 mph37.0 kmh 30.16 in1021.3 mb 0.00 in0.0 mm 0.00 in/hr0.0 mm/hr 0.00 in0.0 mm
11:55 AM 23.2°F-4.9°C 8.6°F-13.0°C 53% 6.0 mph W9.7 kmh W 22.0 mph35.4 kmh 30.16 in1021.3 mb 0.00 in0.0 mm 0.00 in/hr0.0 mm/hr 0.00 in0.0 mm
12:00 PM 23.3°F-4.8°C 8.7°F-12.9°C 53% 9.0 mph NW14.5 kmh NW 21.0 mph33.8 kmh 30.16 in1021.3 mb 0.00 in0.0 mm 0.00 in/hr0.0 mm/hr 0.00 in0.0 mm
12:05 PM 23.4°F-4.8°C 8.8°F-12.9°C 53% 10.0 mph WNW16.1 kmh WNW 20.0 mph32.2 kmh 30.15 in1021.0 mb 0.00 in0.0 mm 0.00 in/hr0.0 mm/hr 0.00 in0.0 mm
12:10 PM 23.6°F-4.7°C 8.5°F-13.1°C 52% 4.0 mph W6.4 kmh W 26.0 mph41.8 kmh 30.15 in1021.0 mb 0.00 in0.0 mm 0.00 in/hr0.0 mm/hr 0.00 in0.0 mm
12:20 PM 23.6°F-4.7°C 8.1°F-13.3°C 51% 18.0 mph NW29.0 kmh NW 26.0 mph41.8 kmh 30.15 in1021.0 mb 0.00 in0.0 mm 0.00 in/hr0.0 mm/hr 0.00 in0.0 mm
12:25 PM 23.7°F-4.6°C 8.2°F-13.2°C 51% 11.0 mph WSW17.7 kmh WSW 29.0 mph46.7 kmh 30.14 in1020.7 mb 0.00 in0.0 mm 0.00 in/hr0.0 mm/hr 0.00 in0.0 mm
12:30 PM 24.1°F-4.4°C 8.6°F-13.0°C 51% 19.0 mph WNW30.6 kmh WNW 26.0 mph41.8 kmh 30.14 in1020.7 mb 0.00 in0.0 mm 0.00 in/hr0.0 mm/hr 0.00 in0.0 mm
12:35 PM 24.0°F-4.4°C 8.0°F-13.3°C 50% 16.0 mph W25.7 kmh W 26.0 mph41.8 kmh 30.13 in1020.3 mb 0.00 in0.0 mm 0.00 in/hr0.0 mm/hr 0.00 in0.0 mm
12:40 PM 23.9°F-4.5°C 7.9°F-13.4°C 50% 19.0 mph WNW30.6 kmh WNW 31.0 mph49.9 kmh 30.13 in1020.3 mb 0.00 in0.0 mm 0.00 in/hr0.0 mm/hr 0.00 in0.0 mm
12:45 PM 23.8°F-4.6°C 7.9°F-13.4°C 50% 9.0 mph WNW14.5 kmh WNW 25.0 mph40.2 kmh 30.14 in1020.7 mb 0.00 in0.0 mm 0.00 in/hr0.0 mm/hr 0.00 in0.0 mm
12:50 PM 23.7°F-4.6°C 8.6°F-13.0°C 52% 19.0 mph NW30.6 kmh NW 24.0 mph38.6 kmh 30.15 in1021.0 mb 0.00 in0.0 mm 0.00 in/hr0.0 mm/hr 0.00 in0.0 mm
12:55 PM 23.8°F-4.6°C 9.1°F-12.7°C 53% 14.0 mph NNW22.5 kmh NNW 26.0 mph41.8 kmh 30.14 in1020.7 mb 0.00 in0.0 mm 0.00 in/hr0.0 mm/hr 0.00 in0.0 mm
01:00 PM 23.8°F-4.6°C 7.9°F-13.4°C 50% 13.0 mph WNW20.9 kmh WNW 25.0 mph40.2 kmh 30.14 in1020.7 mb 0.00 in0.0 mm 0.00 in/hr0.0 mm/hr 0.00 in0.0 mm
01:05 PM 24.1°F-4.4°C 7.7°F-13.5°C 49% 18.0 mph WNW29.0 kmh WNW 25.0 mph40.2 kmh 30.14 in1020.7 mb 0.00 in0.0 mm 0.00 in/hr0.0 mm/hr 0.00 in0.0 mm
01:10 PM 24.2°F-4.3°C 8.2°F-13.2°C 50% 9.0 mph WNW14.5 kmh WNW 22.0 mph35.4 kmh 30.14 in1020.7 mb 0.00 in0.0 mm 0.00 in/hr0.0 mm/hr 0.00 in0.0 mm
01:15 PM 24.7°F-4.1°C 7.8°F-13.4°C 48% 7.0 mph W11.3 kmh W 20.0 mph32.2 kmh 30.14 in1020.7 mb 0.00 in0.0 mm 0.00 in/hr0.0 mm/hr 0.00 in0.0 mm
01:20 PM 24.9°F-3.9°C 7.5°F-13.6°C 47% 13.0 mph WSW20.9 kmh WSW 20.0 mph32.2 kmh 30.14 in1020.7 mb 0.00 in0.0 mm 0.00 in/hr0.0 mm/hr 0.00 in0.0 mm
01:25 PM 24.9°F-3.9°C 7.5°F-13.6°C 47% 13.0 mph NW20.9 kmh NW 29.0 mph46.7 kmh 30.14 in1020.7 mb 0.00 in0.0 mm 0.00 in/hr0.0 mm/hr 0.00 in0.0 mm
01:30 PM 24.8°F-4.0°C 7.9°F-13.4°C 48% 12.0 mph NW19.3 kmh NW 23.0 mph37.0 kmh 30.14 in1020.7 mb 0.00 in0.0 mm 0.00 in/hr0.0 mm/hr 0.00 in0.0 mm
01:35 PM 24.8°F-4.0°C 7.9°F-13.4°C 48% 10.0 mph W16.1 kmh W 26.0 mph41.8 kmh 30.14 in1020.7 mb 0.00 in0.0 mm 0.00 in/hr0.0 mm/hr 0.00 in0.0 mm
01:40 PM 24.8°F-4.0°C 7.9°F-13.4°C 48% 15.0 mph W24.1 kmh W 21.0 mph33.8 kmh 30.13 in1020.3 mb 0.00 in0.0 mm 0.00 in/hr0.0 mm/hr 0.00 in0.0 mm
01:45 PM 25.1°F-3.8°C 7.7°F-13.5°C 47% 4.0 mph W6.4 kmh W 19.0 mph30.6 kmh 30.13 in1020.3 mb 0.00 in0.0 mm 0.00 in/hr0.0 mm/hr 0.00 in0.0 mm
01:50 PM 25.4°F-3.7°C 8.0°F-13.3°C 47% 11.0 mph WNW17.7 kmh WNW 26.0 mph41.8 kmh 30.13 in1020.3 mb 0.00 in0.0 mm 0.00 in/hr0.0 mm/hr 0.00 in0.0 mm
01:55 PM 25.3°F-3.7°C 7.4°F-13.7°C 46% 19.0 mph NW30.6 kmh NW 22.0 mph35.4 kmh 30.13 in1020.3 mb 0.00 in0.0 mm 0.00 in/hr0.0 mm/hr 0.00 in0.0 mm
02:00 PM 25.4°F-3.7°C 7.5°F-13.6°C 46% 11.0 mph W17.7 kmh W 20.0 mph32.2 kmh 30.13 in1020.3 mb 0.00 in0.0 mm 0.00 in/hr0.0 mm/hr 0.00 in0.0 mm
02:05 PM 25.3°F-3.7°C 7.9°F-13.4°C 47% 12.0 mph WSW19.3 kmh WSW 20.0 mph32.2 kmh 30.13 in1020.3 mb 0.00 in0.0 mm 0.00 in/hr0.0 mm/hr 0.00 in0.0 mm
02:10 PM 25.6°F-3.6°C 8.1°F-13.3°C 47% 7.0 mph SW11.3 kmh SW 21.0 mph33.8 kmh 30.13 in1020.3 mb 0.00 in0.0 mm 0.00 in/hr0.0 mm/hr 0.00 in0.0 mm
02:15 PM 25.6°F-3.6°C 8.1°F-13.3°C 47% 11.0 mph W17.7 kmh W 17.0 mph27.4 kmh 30.13 in1020.3 mb 0.00 in0.0 mm 0.00 in/hr0.0 mm/hr 0.00 in0.0 mm
02:20 PM 25.1°F-3.8°C 8.6°F-13.0°C 49% 16.0 mph W25.7 kmh W 23.0 mph37.0 kmh 30.13 in1020.3 mb 0.00 in0.0 mm 0.00 in/hr0.0 mm/hr 0.00 in0.0 mm
02:25 PM 25.6°F-3.6°C 8.6°F-13.0°C 48% 7.0 mph SW11.3 kmh SW 19.0 mph30.6 kmh 30.13 in1020.3 mb 0.00 in0.0 mm 0.00 in/hr0.0 mm/hr 0.00 in0.0 mm
02:30 PM 26.0°F-3.3°C 8.5°F-13.1°C 47% 6.0 mph SSW9.7 kmh SSW 13.0 mph20.9 kmh 30.14 in1020.7 mb 0.00 in0.0 mm 0.00 in/hr0.0 mm/hr 0.00 in0.0 mm
02:35 PM 26.3°F-3.2°C 9.3°F-12.6°C 48% 6.0 mph W9.7 kmh W 14.0 mph22.5 kmh 30.13 in1020.3 mb 0.00 in0.0 mm 0.00 in/hr0.0 mm/hr 0.00 in0.0 mm
02:40 PM 26.3°F-3.2°C 8.3°F-13.2°C 46% 4.0 mph W6.4 kmh W 13.0 mph20.9 kmh 30.13 in1020.3 mb 0.00 in0.0 mm 0.00 in/hr0.0 mm/hr 0.00 in0.0 mm
02:45 PM 26.6°F-3.0°C 9.1°F-12.7°C 47% 10.0 mph NW16.1 kmh NW 10.0 mph16.1 kmh 30.13 in1020.3 mb 0.00 in0.0 mm 0.00 in/hr0.0 mm/hr 0.00 in0.0 mm
02:50 PM 26.9°F-2.8°C 8.4°F-13.1°C 45% 4.0 mph NW6.4 kmh NW 12.0 mph19.3 kmh 30.13 in1020.3 mb 0.00 in0.0 mm 0.00 in/hr0.0 mm/hr 0.00 in0.0 mm
02:55 PM 27.2°F-2.7°C 8.2°F-13.2°C 44% 9.0 mph NW14.5 kmh NW 16.0 mph25.7 kmh 30.13 in1020.3 mb 0.00 in0.0 mm 0.00 in/hr0.0 mm/hr 0.00 in0.0 mm
03:00 PM 27.0°F-2.8°C 8.0°F-13.3°C 44% 6.0 mph NW9.7 kmh NW 13.0 mph20.9 kmh 30.13 in1020.3 mb 0.00 in0.0 mm 0.00 in/hr0.0 mm/hr 0.00 in0.0 mm
03:05 PM 26.7°F-2.9°C 7.7°F-13.5°C 44% 9.0 mph W14.5 kmh W 19.0 mph30.6 kmh 30.14 in1020.7 mb 0.00 in0.0 mm 0.00 in/hr0.0 mm/hr 0.00 in0.0 mm
03:10 PM 26.5°F-3.1°C 8.0°F-13.3°C 45% 15.0 mph WNW24.1 kmh WNW 17.0 mph27.4 kmh 30.14 in1020.7 mb 0.00 in0.0 mm 0.00 in/hr0.0 mm/hr 0.00 in0.0 mm
03:15 PM 26.1°F-3.3°C 8.1°F-13.3°C 46% 11.0 mph WNW17.7 kmh WNW 19.0 mph30.6 kmh 30.14 in1020.7 mb 0.00 in0.0 mm 0.00 in/hr0.0 mm/hr 0.00 in0.0 mm
03:20 PM 26.0°F-3.3°C 9.0°F-12.8°C 48% 3.0 mph SW4.8 kmh SW 20.0 mph32.2 kmh 30.15 in1021.0 mb 0.00 in0.0 mm 0.00 in/hr0.0 mm/hr 0.00 in0.0 mm
03:25 PM 26.2°F-3.2°C 8.2°F-13.2°C 46% 4.0 mph NW6.4 kmh NW 11.0 mph17.7 kmh 30.15 in1021.0 mb 0.00 in0.0 mm 0.00 in/hr0.0 mm/hr 0.00 in0.0 mm
03:30 PM 25.8°F-3.4°C 8.3°F-13.2°C 47% 11.0 mph NW17.7 kmh NW 14.0 mph22.5 kmh 30.15 in1021.0 mb 0.00 in0.0 mm 0.00 in/hr0.0 mm/hr 0.00 in0.0 mm
03:35 PM 25.6°F-3.6°C 8.1°F-13.3°C 47% 4.0 mph WSW6.4 kmh WSW 14.0 mph22.5 kmh 30.15 in1021.0 mb 0.00 in0.0 mm 0.00 in/hr0.0 mm/hr 0.00 in0.0 mm
03:40 PM 25.7°F-3.5°C 8.2°F-13.2°C 47% 5.0 mph NW8.0 kmh NW 19.0 mph30.6 kmh 30.14 in1020.7 mb 0.00 in0.0 mm 0.00 in/hr0.0 mm/hr 0.00 in0.0 mm
03:45 PM 26.1°F-3.3°C 8.1°F-13.3°C 46% 2.0 mph NW3.2 kmh NW 16.0 mph25.7 kmh 30.14 in1020.7 mb 0.00 in0.0 mm 0.00 in/hr0.0 mm/hr 0.00 in0.0 mm
03:50 PM 26.2°F-3.2°C 8.2°F-13.2°C 46% 5.0 mph WNW8.0 kmh WNW 15.0 mph24.1 kmh 30.14 in1020.7 mb 0.00 in0.0 mm 0.00 in/hr0.0 mm/hr 0.00 in0.0 mm
03:55 PM 26.4°F-3.1°C 8.4°F-13.1°C 46% 2.0 mph WNW3.2 kmh WNW 12.0 mph19.3 kmh 30.14 in1020.7 mb 0.00 in0.0 mm 0.00 in/hr0.0 mm/hr 0.00 in0.0 mm
04:00 PM 26.6°F-3.0°C 8.1°F-13.3°C 45% 4.0 mph WNW6.4 kmh WNW 12.0 mph19.3 kmh 30.14 in1020.7 mb 0.00 in0.0 mm 0.00 in/hr0.0 mm/hr 0.00 in0.0 mm
04:05 PM 26.5°F-3.1°C 8.0°F-13.3°C 45% 8.0 mph WNW12.9 kmh WNW 12.0 mph19.3 kmh 30.14 in1020.7 mb 0.00 in0.0 mm 0.00 in/hr0.0 mm/hr 0.00 in0.0 mm
04:10 PM 26.0°F-3.3°C 7.6°F-13.6°C 45% 6.0 mph W9.7 kmh W 12.0 mph19.3 kmh 30.15 in1021.0 mb 0.00 in0.0 mm 0.00 in/hr0.0 mm/hr 0.00 in0.0 mm
04:15 PM 25.6°F-3.6°C 7.7°F-13.5°C 46% 7.0 mph WSW11.3 kmh WSW 10.0 mph16.1 kmh 30.15 in1021.0 mb 0.00 in0.0 mm 0.00 in/hr0.0 mm/hr 0.00 in0.0 mm
04:20 PM 25.4°F-3.7°C 7.5°F-13.6°C 46% 3.0 mph SW4.8 kmh SW 16.0 mph25.7 kmh 30.15 in1021.0 mb 0.00 in0.0 mm 0.00 in/hr0.0 mm/hr 0.00 in0.0 mm
04:25 PM 25.0°F-3.9°C 7.6°F-13.6°C 47% 12.0 mph W19.3 kmh W 21.0 mph33.8 kmh 30.15 in1021.0 mb 0.00 in0.0 mm 0.00 in/hr0.0 mm/hr 0.00 in0.0 mm
04:30 PM 24.7°F-4.1°C 8.2°F-13.2°C 49% 6.0 mph W9.7 kmh W 24.0 mph38.6 kmh 30.16 in1021.3 mb 0.00 in0.0 mm 0.00 in/hr0.0 mm/hr 0.00 in0.0 mm
04:35 PM 24.2°F-4.3°C 8.2°F-13.2°C 50% 10.0 mph SW16.1 kmh SW 20.0 mph32.2 kmh 30.16 in1021.3 mb 0.00 in0.0 mm 0.00 in/hr0.0 mm/hr 0.00 in0.0 mm
04:40 PM 24.0°F-4.4°C 8.5°F-13.1°C 51% 11.0 mph WSW17.7 kmh WSW 18.0 mph29.0 kmh 30.17 in1021.7 mb 0.00 in0.0 mm 0.00 in/hr0.0 mm/hr 0.00 in0.0 mm
04:45 PM 23.9°F-4.5°C 8.4°F-13.1°C 51% 11.0 mph SW17.7 kmh SW 21.0 mph33.8 kmh 30.17 in1021.7 mb 0.00 in0.0 mm 0.00 in/hr0.0 mm/hr 0.00 in0.0 mm
04:50 PM 23.8°F-4.6°C 8.3°F-13.2°C 51% 23.0 mph SW37.0 kmh SW 23.0 mph37.0 kmh 30.17 in1021.7 mb 0.00 in0.0 mm 0.00 in/hr0.0 mm/hr 0.00 in0.0 mm
04:55 PM 23.6°F-4.7°C 8.1°F-13.3°C 51% 8.0 mph WSW12.9 kmh WSW 23.0 mph37.0 kmh 30.16 in1021.3 mb 0.00 in0.0 mm 0.00 in/hr0.0 mm/hr 0.00 in0.0 mm
05:00 PM 23.6°F-4.7°C 8.1°F-13.3°C 51% 7.0 mph WSW11.3 kmh WSW 24.0 mph38.6 kmh 30.17 in1021.7 mb 0.00 in0.0 mm 0.00 in/hr0.0 mm/hr 0.00 in0.0 mm
05:05 PM 23.6°F-4.7°C 8.5°F-13.1°C 52% 12.0 mph WSW19.3 kmh WSW 16.0 mph25.7 kmh 30.17 in1021.7 mb 0.00 in0.0 mm 0.00 in/hr0.0 mm/hr 0.00 in0.0 mm
05:10 PM 23.4°F-4.8°C 8.4°F-13.1°C 52% 11.0 mph WSW17.7 kmh WSW 21.0 mph33.8 kmh 30.16 in1021.3 mb 0.00 in0.0 mm 0.00 in/hr0.0 mm/hr 0.00 in0.0 mm
05:15 PM 23.3°F-4.8°C 8.3°F-13.2°C 52% 7.0 mph WSW11.3 kmh WSW 20.0 mph32.2 kmh 30.17 in1021.7 mb 0.00 in0.0 mm 0.00 in/hr0.0 mm/hr 0.00 in0.0 mm
05:20 PM 23.1°F-4.9°C 8.5°F-13.1°C 53% 11.0 mph WSW17.7 kmh WSW 22.0 mph35.4 kmh 30.17 in1021.7 mb 0.00 in0.0 mm 0.00 in/hr0.0 mm/hr 0.00 in0.0 mm
05:25 PM 22.9°F-5.1°C 8.3°F-13.2°C 53% 10.0 mph WSW16.1 kmh WSW 17.0 mph27.4 kmh 30.18 in1022.0 mb 0.00 in0.0 mm 0.00 in/hr0.0 mm/hr 0.00 in0.0 mm
05:30 PM 22.7°F-5.2°C 8.5°F-13.1°C 54% 10.0 mph WNW16.1 kmh WNW 15.0 mph24.1 kmh 30.18 in1022.0 mb 0.00 in0.0 mm 0.00 in/hr0.0 mm/hr 0.00 in0.0 mm
05:35 PM 22.7°F-5.2°C 8.5°F-13.1°C 54% 12.0 mph SW19.3 kmh SW 17.0 mph27.4 kmh 30.17 in1021.7 mb 0.00 in0.0 mm 0.00 in/hr0.0 mm/hr 0.00 in0.0 mm
05:40 PM 22.9°F-5.1°C 8.7°F-12.9°C 54% 7.0 mph WSW11.3 kmh WSW 18.0 mph29.0 kmh 30.17 in1021.7 mb 0.00 in0.0 mm 0.00 in/hr0.0 mm/hr 0.00 in0.0 mm
05:45 PM 23.2°F-4.9°C 8.2°F-13.2°C 52% 10.0 mph WSW16.1 kmh WSW 20.0 mph32.2 kmh 30.16 in1021.3 mb 0.00 in0.0 mm 0.00 in/hr0.0 mm/hr 0.00 in0.0 mm
05:50 PM 23.2°F-4.9°C 8.2°F-13.2°C 52% 4.0 mph W6.4 kmh W 14.0 mph22.5 kmh 30.17 in1021.7 mb 0.00 in0.0 mm 0.00 in/hr0.0 mm/hr 0.00 in0.0 mm
05:55 PM 23.3°F-4.8°C 8.3°F-13.2°C 52% 8.0 mph W12.9 kmh W 19.0 mph30.6 kmh 30.17 in1021.7 mb 0.00 in0.0 mm 0.00 in/hr0.0 mm/hr 0.00 in0.0 mm
06:00 PM 23.3°F-4.8°C 8.3°F-13.2°C 52% 4.0 mph WSW6.4 kmh WSW 13.0 mph20.9 kmh 30.17 in1021.7 mb 0.00 in0.0 mm 0.00 in/hr0.0 mm/hr 0.00 in0.0 mm
06:05 PM 23.4°F-4.8°C 8.4°F-13.1°C 52% 4.0 mph WSW6.4 kmh WSW 15.0 mph24.1 kmh 30.17 in1021.7 mb 0.00 in0.0 mm 0.00 in/hr0.0 mm/hr 0.00 in0.0 mm
06:10 PM 23.5°F-4.7°C 8.9°F-12.8°C 53% 6.0 mph W9.7 kmh W 19.0 mph30.6 kmh 30.17 in1021.7 mb 0.00 in0.0 mm 0.00 in/hr0.0 mm/hr 0.00 in0.0 mm
06:15 PM 23.5°F-4.7°C 8.9°F-12.8°C 53% 3.0 mph W4.8 kmh W 18.0 mph29.0 kmh 30.18 in1022.0 mb 0.00 in0.0 mm 0.00 in/hr0.0 mm/hr 0.00 in0.0 mm
06:20 PM 23.8°F-4.6°C 9.1°F-12.7°C 53% 13.0 mph SW20.9 kmh SW 13.0 mph20.9 kmh 30.18 in1022.0 mb 0.00 in0.0 mm 0.00 in/hr0.0 mm/hr 0.00 in0.0 mm
06:25 PM 23.9°F-4.5°C 8.8°F-12.9°C 52% 5.0 mph WSW8.0 kmh WSW 20.0 mph32.2 kmh 30.18 in1022.0 mb 0.00 in0.0 mm 0.00 in/hr0.0 mm/hr 0.00 in0.0 mm
06:30 PM 23.9°F-4.5°C 8.8°F-12.9°C 52% 9.0 mph WSW14.5 kmh WSW 20.0 mph32.2 kmh 30.18 in1022.0 mb 0.00 in0.0 mm 0.00 in/hr0.0 mm/hr 0.00 in0.0 mm
06:35 PM 23.9°F-4.5°C 8.8°F-12.9°C 52% 15.0 mph W24.1 kmh W 20.0 mph32.2 kmh 30.18 in1022.0 mb 0.00 in0.0 mm 0.00 in/hr0.0 mm/hr 0.00 in0.0 mm
06:40 PM 23.8°F-4.6°C 9.1°F-12.7°C 53% 17.0 mph WSW27.4 kmh WSW 26.0 mph41.8 kmh 30.18 in1022.0 mb 0.00 in0.0 mm 0.00 in/hr0.0 mm/hr 0.00 in0.0 mm
06:45 PM 23.8°F-4.6°C 9.1°F-12.7°C 53% 9.0 mph W14.5 kmh W 22.0 mph35.4 kmh 30.18 in1022.0 mb 0.00 in0.0 mm 0.00 in/hr0.0 mm/hr 0.00 in0.0 mm
06:50 PM 23.8°F-4.6°C 9.6°F-12.4°C 54% 13.0 mph WSW20.9 kmh WSW 25.0 mph40.2 kmh 30.18 in1022.0 mb 0.00 in0.0 mm 0.00 in/hr0.0 mm/hr 0.00 in0.0 mm
06:55 PM 23.8°F-4.6°C 9.6°F-12.4°C 54% 11.0 mph SW17.7 kmh SW 21.0 mph33.8 kmh 30.18 in1022.0 mb 0.00 in0.0 mm 0.00 in/hr0.0 mm/hr 0.00 in0.0 mm
07:00 PM 23.8°F-4.6°C 9.6°F-12.4°C 54% 5.0 mph SW8.0 kmh SW 25.0 mph40.2 kmh 30.18 in1022.0 mb 0.00 in0.0 mm 0.00 in/hr0.0 mm/hr 0.00 in0.0 mm
07:05 PM 23.9°F-4.5°C 9.7°F-12.4°C 54% 14.0 mph WSW22.5 kmh WSW 26.0 mph41.8 kmh 30.18 in1022.0 mb 0.00 in0.0 mm 0.00 in/hr0.0 mm/hr 0.00 in0.0 mm
07:10 PM 23.9°F-4.5°C 10.1°F-12.2°C 55% 6.0 mph W9.7 kmh W 19.0 mph30.6 kmh 30.18 in1022.0 mb 0.00 in0.0 mm 0.00 in/hr0.0 mm/hr 0.00 in0.0 mm
07:15 PM 24.1°F-4.4°C 10.2°F-12.1°C 55% 5.0 mph SW8.0 kmh SW 22.0 mph35.4 kmh 30.17 in1021.7 mb 0.00 in0.0 mm 0.00 in/hr0.0 mm/hr 0.00 in0.0 mm
07:20 PM 24.2°F-4.3°C 10.3°F-12.1°C 55% 6.0 mph W9.7 kmh W 17.0 mph27.4 kmh 30.17 in1021.7 mb 0.00 in0.0 mm 0.00 in/hr0.0 mm/hr 0.00 in0.0 mm
07:25 PM 24.3°F-4.3°C 10.4°F-12.0°C 55% 7.0 mph W11.3 kmh W 20.0 mph32.2 kmh 30.17 in1021.7 mb 0.00 in0.0 mm 0.00 in/hr0.0 mm/hr 0.00 in0.0 mm
07:30 PM 24.3°F-4.3°C 10.0°F-12.2°C 54% 1.0 mph SSW1.6 kmh SSW 10.0 mph16.1 kmh 30.18 in1022.0 mb 0.00 in0.0 mm 0.00 in/hr0.0 mm/hr 0.00 in0.0 mm
07:35 PM 24.2°F-4.3°C 10.3°F-12.1°C 55% 1.0 mph NW1.6 kmh NW 5.0 mph8.0 kmh 30.17 in1021.7 mb 0.00 in0.0 mm 0.00 in/hr0.0 mm/hr 0.00 in0.0 mm
07:40 PM 24.2°F-4.3°C 10.7°F-11.8°C 56% 5.0 mph SSW8.0 kmh SSW 13.0 mph20.9 kmh 30.17 in1021.7 mb 0.00 in0.0 mm 0.00 in/hr0.0 mm/hr 0.00 in0.0 mm
07:45 PM 24.2°F-4.3°C 10.7°F-11.8°C 56% 1.0 mph NW1.6 kmh NW 15.0 mph24.1 kmh 30.17 in1021.7 mb 0.00 in0.0 mm 0.00 in/hr0.0 mm/hr 0.00 in0.0 mm
07:50 PM 24.1°F-4.4°C 10.7°F-11.8°C 56% 11.0 mph NW17.7 kmh NW 16.0 mph25.7 kmh 30.17 in1021.7 mb 0.00 in0.0 mm 0.00 in/hr0.0 mm/hr 0.00 in0.0 mm
07:55 PM 24.0°F-4.4°C 11.0°F-11.7°C 57% 5.0 mph WSW8.0 kmh WSW 11.0 mph17.7 kmh 30.17 in1021.7 mb 0.00 in0.0 mm 0.00 in/hr0.0 mm/hr 0.00 in0.0 mm
08:00 PM 23.9°F-4.5°C 10.9°F-11.7°C 57% 2.0 mph N3.2 kmh N 17.0 mph27.4 kmh 30.16 in1021.3 mb 0.00 in0.0 mm 0.00 in/hr0.0 mm/hr 0.00 in0.0 mm
08:05 PM 23.8°F-4.6°C 11.2°F-11.6°C 58% 4.0 mph WNW6.4 kmh WNW 18.0 mph29.0 kmh 30.16 in1021.3 mb 0.00 in0.0 mm 0.00 in/hr0.0 mm/hr 0.00 in0.0 mm
08:10 PM 23.8°F-4.6°C 11.2°F-11.6°C 58% 9.0 mph WSW14.5 kmh WSW 12.0 mph19.3 kmh 30.16 in1021.3 mb 0.00 in0.0 mm 0.00 in/hr0.0 mm/hr 0.00 in0.0 mm
08:15 PM 23.9°F-4.5°C 11.3°F-11.5°C 58% 2.0 mph W3.2 kmh W 16.0 mph25.7 kmh 30.16 in1021.3 mb 0.00 in0.0 mm 0.00 in/hr0.0 mm/hr 0.00 in0.0 mm
08:20 PM 24.1°F-4.4°C 11.4°F-11.4°C 58% 7.0 mph W11.3 kmh W 9.0 mph14.5 kmh 30.16 in1021.3 mb 0.00 in0.0 mm 0.00 in/hr0.0 mm/hr 0.00 in0.0 mm
08:25 PM 24.4°F-4.2°C 11.7°F-11.3°C 58% 9.0 mph SW14.5 kmh SW 15.0 mph24.1 kmh 30.16 in1021.3 mb 0.00 in0.0 mm 0.00 in/hr0.0 mm/hr 0.00 in0.0 mm
08:30 PM 24.7°F-4.1°C 11.6°F-11.3°C 57% 8.0 mph WSW12.9 kmh WSW 14.0 mph22.5 kmh 30.15 in1021.0 mb 0.00 in0.0 mm 0.00 in/hr0.0 mm/hr 0.00 in0.0 mm
08:35 PM 24.9°F-3.9°C 11.8°F-11.2°C 57% 9.0 mph NW14.5 kmh NW 17.0 mph27.4 kmh 30.16 in1021.3 mb 0.00 in0.0 mm 0.00 in/hr0.0 mm/hr 0.00 in0.0 mm
08:40 PM 25.0°F-3.9°C 11.9°F-11.2°C 57% 1.0 mph WSW1.6 kmh WSW 15.0 mph24.1 kmh 30.15 in1021.0 mb 0.00 in0.0 mm 0.00 in/hr0.0 mm/hr 0.00 in0.0 mm
08:45 PM 25.0°F-3.9°C 12.3°F-10.9°C 58% 20.0 mph WSW32.2 kmh WSW 20.0 mph32.2 kmh 30.14 in1020.7 mb 0.00 in0.0 mm 0.00 in/hr0.0 mm/hr 0.00 in0.0 mm
08:50 PM 25.4°F-3.7°C 12.3°F-10.9°C 57% 2.0 mph W3.2 kmh W 17.0 mph27.4 kmh 30.14 in1020.7 mb 0.00 in0.0 mm 0.00 in/hr0.0 mm/hr 0.00 in0.0 mm
08:55 PM 25.6°F-3.6°C 12.5°F-10.8°C 57% 2.0 mph WNW3.2 kmh WNW 15.0 mph24.1 kmh 30.14 in1020.7 mb 0.00 in0.0 mm 0.00 in/hr0.0 mm/hr 0.00 in0.0 mm
09:00 PM 25.6°F-3.6°C 12.5°F-10.8°C 57% 3.0 mph W4.8 kmh W 10.0 mph16.1 kmh 30.14 in1020.7 mb 0.00 in0.0 mm 0.00 in/hr0.0 mm/hr 0.00 in0.0 mm
09:05 PM 25.8°F-3.4°C 12.6°F-10.8°C 57% 12.0 mph NW19.3 kmh NW 14.0 mph22.5 kmh 30.14 in1020.7 mb 0.00 in0.0 mm 0.00 in/hr0.0 mm/hr 0.00 in0.0 mm
09:10 PM 26.1°F-3.3°C 12.5°F-10.8°C 56% 2.0 mph W3.2 kmh W 17.0 mph27.4 kmh 30.14 in1020.7 mb 0.00 in0.0 mm 0.00 in/hr0.0 mm/hr 0.00 in0.0 mm
09:15 PM 26.5°F-3.1°C 13.3°F-10.4°C 57% 8.0 mph SSW12.9 kmh SSW 13.0 mph20.9 kmh 30.14 in1020.7 mb 0.00 in0.0 mm 0.00 in/hr0.0 mm/hr 0.00 in0.0 mm
09:20 PM 27.0°F-2.8°C 13.4°F-10.3°C 56% 6.0 mph WSW9.7 kmh WSW 16.0 mph25.7 kmh 30.14 in1020.7 mb 0.00 in0.0 mm 0.00 in/hr0.0 mm/hr 0.00 in0.0 mm
09:25 PM 27.4°F-2.6°C 13.3°F-10.4°C 55% 5.0 mph SW8.0 kmh SW 20.0 mph32.2 kmh 30.14 in1020.7 mb 0.00 in0.0 mm 0.00 in/hr0.0 mm/hr 0.00 in0.0 mm
09:30 PM 27.6°F-2.4°C 13.5°F-10.3°C 55% 6.0 mph WSW9.7 kmh WSW 21.0 mph33.8 kmh 30.14 in1020.7 mb 0.00 in0.0 mm 0.00 in/hr0.0 mm/hr 0.00 in0.0 mm
09:35 PM 27.3°F-2.6°C 13.2°F-10.4°C 55% 7.0 mph SW11.3 kmh SW 19.0 mph30.6 kmh 30.13 in1020.3 mb 0.00 in0.0 mm 0.00 in/hr0.0 mm/hr 0.00 in0.0 mm
09:40 PM 26.7°F-2.9°C 13.1°F-10.5°C 56% 15.0 mph SW24.1 kmh SW 15.0 mph24.1 kmh 30.13 in1020.3 mb 0.00 in0.0 mm 0.00 in/hr0.0 mm/hr 0.00 in0.0 mm
09:45 PM 26.6°F-3.0°C 13.0°F-10.6°C 56% 7.0 mph SW11.3 kmh SW 14.0 mph22.5 kmh 30.13 in1020.3 mb 0.00 in0.0 mm 0.00 in/hr0.0 mm/hr 0.00 in0.0 mm
09:50 PM 26.7°F-2.9°C 13.1°F-10.5°C 56% 4.0 mph SSW6.4 kmh SSW 14.0 mph22.5 kmh 30.13 in1020.3 mb 0.00 in0.0 mm 0.00 in/hr0.0 mm/hr 0.00 in0.0 mm
09:55 PM 26.9°F-2.8°C 13.3°F-10.4°C 56% 1.0 mph WSW1.6 kmh WSW 7.0 mph11.3 kmh 30.14 in1020.7 mb 0.00 in0.0 mm 0.00 in/hr0.0 mm/hr 0.00 in0.0 mm
10:00 PM 26.8°F-2.9°C 13.2°F-10.4°C 56% 4.0 mph WSW6.4 kmh WSW 6.0 mph9.7 kmh 30.14 in1020.7 mb 0.00 in0.0 mm 0.00 in/hr0.0 mm/hr 0.00 in0.0 mm
10:05 PM 27.1°F-2.7°C 13.1°F-10.5°C 55% 7.0 mph W11.3 kmh W 11.0 mph17.7 kmh 30.13 in1020.3 mb 0.00 in0.0 mm 0.00 in/hr0.0 mm/hr 0.00 in0.0 mm
10:10 PM 27.4°F-2.6°C 12.9°F-10.6°C 54% 2.0 mph WSW3.2 kmh WSW 20.0 mph32.2 kmh 30.13 in1020.3 mb 0.00 in0.0 mm 0.00 in/hr0.0 mm/hr 0.00 in0.0 mm
10:15 PM 27.3°F-2.6°C 12.8°F-10.7°C 54% 5.0 mph SW8.0 kmh SW 9.0 mph14.5 kmh 30.14 in1020.7 mb 0.00 in0.0 mm 0.00 in/hr0.0 mm/hr 0.00 in0.0 mm
10:20 PM 27.5°F-2.5°C 12.6°F-10.8°C 53% 5.0 mph WNW8.0 kmh WNW 8.0 mph12.9 kmh 30.14 in1020.7 mb 0.00 in0.0 mm 0.00 in/hr0.0 mm/hr 0.00 in0.0 mm
10:25 PM 27.4°F-2.6°C 12.9°F-10.6°C 54% 10.0 mph NW16.1 kmh NW 15.0 mph24.1 kmh 30.13 in1020.3 mb 0.00 in0.0 mm 0.00 in/hr0.0 mm/hr 0.00 in0.0 mm
10:30 PM 27.2°F-2.7°C 12.7°F-10.7°C 54% 1.0 mph SSW1.6 kmh SSW 15.0 mph24.1 kmh 30.15 in1021.0 mb 0.00 in0.0 mm 0.00 in/hr0.0 mm/hr 0.00 in0.0 mm
10:35 PM 27.0°F-2.8°C 13.0°F-10.6°C 55% Calm Calm 18.0 mph29.0 kmh 30.15 in1021.0 mb 0.00 in0.0 mm 0.00 in/hr0.0 mm/hr 0.00 in0.0 mm
10:40 PM 26.7°F-2.9°C 13.1°F-10.5°C 56% 1.0 mph S1.6 kmh S 13.0 mph20.9 kmh 30.15 in1021.0 mb 0.00 in0.0 mm 0.00 in/hr0.0 mm/hr 0.00 in0.0 mm
10:45 PM 26.6°F-3.0°C 13.0°F-10.6°C 56% 8.0 mph W12.9 kmh W 10.0 mph16.1 kmh 30.15 in1021.0 mb 0.00 in0.0 mm 0.00 in/hr0.0 mm/hr 0.00 in0.0 mm
10:50 PM 26.5°F-3.1°C 13.3°F-10.4°C 57% 5.0 mph WNW8.0 kmh WNW 20.0 mph32.2 kmh 30.17 in1021.7 mb 0.00 in0.0 mm 0.00 in/hr0.0 mm/hr 0.00 in0.0 mm
10:55 PM 26.1°F-3.3°C 12.9°F-10.6°C 57% 1.0 mph NW1.6 kmh NW 13.0 mph20.9 kmh 30.17 in1021.7 mb 0.00 in0.0 mm 0.00 in/hr0.0 mm/hr 0.00 in0.0 mm
11:00 PM 25.8°F-3.4°C 13.0°F-10.6°C 58% 3.0 mph W4.8 kmh W 16.0 mph25.7 kmh 30.17 in1021.7 mb 0.00 in0.0 mm 0.00 in/hr0.0 mm/hr 0.00 in0.0 mm
11:05 PM 25.5°F-3.6°C 13.1°F-10.5°C 59% 2.0 mph W3.2 kmh W 18.0 mph29.0 kmh 30.17 in1021.7 mb 0.00 in0.0 mm 0.00 in/hr0.0 mm/hr 0.00 in0.0 mm
11:10 PM 25.7°F-3.5°C 13.3°F-10.4°C 59% 13.0 mph WNW20.9 kmh WNW 24.0 mph38.6 kmh 30.17 in1021.7 mb 0.00 in0.0 mm 0.00 in/hr0.0 mm/hr 0.00 in0.0 mm
11:15 PM 25.9°F-3.4°C 13.9°F-10.1°C 60% 14.0 mph W22.5 kmh W 22.0 mph35.4 kmh 30.16 in1021.3 mb 0.00 in0.0 mm 0.00 in/hr0.0 mm/hr 0.00 in0.0 mm
11:20 PM 26.0°F-3.3°C 13.6°F-10.2°C 59% 7.0 mph NW11.3 kmh NW 19.0 mph30.6 kmh 30.17 in1021.7 mb 0.00 in0.0 mm 0.00 in/hr0.0 mm/hr 0.00 in0.0 mm
11:25 PM 25.8°F-3.4°C 13.4°F-10.3°C 59% 21.0 mph NW33.8 kmh NW 21.0 mph33.8 kmh 30.17 in1021.7 mb 0.00 in0.0 mm 0.00 in/hr0.0 mm/hr 0.00 in0.0 mm
11:30 PM 25.9°F-3.4°C 13.9°F-10.1°C 60% 5.0 mph NW8.0 kmh NW 31.0 mph49.9 kmh 30.16 in1021.3 mb 0.00 in0.0 mm 0.00 in/hr0.0 mm/hr 0.00 in0.0 mm
11:35 PM 25.7°F-3.5°C 13.7°F-10.2°C 60% 9.0 mph W14.5 kmh W 18.0 mph29.0 kmh 30.15 in1021.0 mb 0.00 in0.0 mm 0.00 in/hr0.0 mm/hr 0.00 in0.0 mm
11:40 PM 25.6°F-3.6°C 14.0°F-10.0°C 61% 7.0 mph W11.3 kmh W 18.0 mph29.0 kmh 30.16 in1021.3 mb 0.00 in0.0 mm 0.00 in/hr0.0 mm/hr 0.00 in0.0 mm
11:45 PM 25.7°F-3.5°C 13.7°F-10.2°C 60% 6.0 mph SW9.7 kmh SW 13.0 mph20.9 kmh 30.15 in1021.0 mb 0.00 in0.0 mm 0.00 in/hr0.0 mm/hr 0.00 in0.0 mm
11:50 PM 25.7°F-3.5°C 13.7°F-10.2°C 60% 13.0 mph WSW20.9 kmh WSW 18.0 mph29.0 kmh 30.14 in1020.7 mb 0.00 in0.0 mm 0.00 in/hr0.0 mm/hr 0.00 in0.0 mm
11:55 PM 25.8°F-3.4°C 14.2°F-9.9°C 61% 18.0 mph SW29.0 kmh SW 22.0 mph35.4 kmh 30.14 in1020.7 mb 0.00 in0.0 mm 0.00 in/hr0.0 mm/hr 0.00 in0.0 mm